Time;durP1;ratioP1;P1;durP2;ratioP2;P2;SDS_P1;SDS_P2;PMS_P1;PMS_P2;Temp;Humidity;BMP_temperature;BMP_pressure;BME280_temperature;BME280_humidity;BME280_pressure;Samples;Min_cycle;Max_cycle;Signal;HPM_P1;HPM_P2
2023/01/01 00:00:01;;;;;;;181.23;126.28;;;9.30;87.80;;;;;;5096179;28;20232;-63
2023/01/01 00:02:28;;;;;;;160.50;119.00;;;9.30;87.50;;;;;;5095842;28;20218;-63
2023/01/01 00:04:55;;;;;;;177.88;123.97;;;9.30;87.70;;;;;;5095924;28;20194;-65
2023/01/01 00:07:23;;;;;;;178.07;125.72;;;9.30;87.30;;;;;;5096102;28;20223;-63
2023/01/01 00:12:35;;;;;;;176.00;118.15;;;9.30;86.70;;;;;;5095836;28;20551;-63
2023/01/01 00:15:02;;;;;;;177.98;124.15;;;9.30;86.90;;;;;;5095674;28;20286;-64
2023/01/01 00:17:29;;;;;;;166.82;112.70;;;9.30;87.00;;;;;;5095798;28;20234;-63
2023/01/01 00:19:56;;;;;;;155.18;107.53;;;9.20;86.90;;;;;;5094353;28;20229;-64
2023/01/01 00:22:25;;;;;;;162.05;114.15;;;9.10;86.80;;;;;;5095615;28;20217;-62
2023/01/01 00:24:52;;;;;;;141.52;98.13;;;9.10;86.10;;;;;;5095084;28;20195;-62
2023/01/01 00:27:19;;;;;;;154.27;106.63;;;9.00;86.00;;;;;;5095635;28;20279;-62
2023/01/01 00:29:46;;;;;;;135.38;89.93;;;9.00;86.40;;;;;;5095458;28;20237;-62
2023/01/01 00:32:12;;;;;;;134.07;93.72;;;8.90;86.70;;;;;;5095404;28;20194;-62
2023/01/01 00:34:39;;;;;;;127.88;82.05;;;8.80;87.40;;;;;;5094977;28;20273;-62
2023/01/01 00:37:06;;;;;;;109.95;73.38;;;8.80;87.90;;;;;;5095075;28;20286;-63
2023/01/01 00:39:35;;;;;;;104.78;71.68;;;8.80;88.90;;;;;;5094943;28;20284;-62
2023/01/01 00:42:02;;;;;;;123.15;78.15;;;8.70;89.60;;;;;;5095248;28;20220;-62
2023/01/01 00:44:29;;;;;;;111.88;79.05;;;8.70;90.10;;;;;;5095154;28;20222;-62
2023/01/01 00:46:55;;;;;;;138.13;83.20;;;8.70;90.50;;;;;;5094971;28;20275;-63
2023/01/01 00:49:22;;;;;;;127.75;83.82;;;8.70;90.40;;;;;;5095073;28;20284;-63
2023/01/01 00:51:49;;;;;;;119.93;77.82;;;8.70;90.40;;;;;;5094653;28;20276;-63
2023/01/01 00:54:16;;;;;;;131.57;79.53;;;8.70;90.60;;;;;;5095124;28;20214;-63
2023/01/01 00:56:45;;;;;;;124.40;80.45;;;8.70;90.60;;;;;;5094969;28;20211;-63
2023/01/01 00:59:12;;;;;;;122.45;83.20;;;8.80;90.30;;;;;;5094743;28;20229;-62
2023/01/01 01:01:41;;;;;;;125.47;83.05;;;8.80;90.10;;;;;;5094731;28;20303;-62
2023/01/01 01:04:09;;;;;;;125.28;80.88;;;8.80;90.20;;;;;;5094586;28;20194;-63
2023/01/01 01:06:36;;;;;;;114.65;76.78;;;8.80;90.50;;;;;;5094430;28;20240;-62
2023/01/01 01:09:03;;;;;;;117.30;75.22;;;8.80;90.30;;;;;;5094253;28;20217;-62
2023/01/01 01:11:31;;;;;;;108.65;71.88;;;8.80;90.20;;;;;;5094138;28;20311;-63
2023/01/01 01:13:59;;;;;;;113.85;74.45;;;8.90;90.20;;;;;;5094618;28;20630;-63
2023/01/01 01:16:28;;;;;;;112.72;71.10;;;8.90;90.00;;;;;;5094488;28;20201;-63
2023/01/01 01:18:58;;;;;;;103.15;67.38;;;8.90;89.30;;;;;;5094505;28;20186;-65
2023/01/01 01:21:25;;;;;;;95.38;62.65;;;8.90;89.40;;;;;;5094247;28;20222;-64
2023/01/01 01:23:53;;;;;;;95.60;57.60;;;8.80;89.70;;;;;;5094151;28;20229;-63
2023/01/01 01:26:22;;;;;;;86.40;57.20;;;8.80;89.90;;;;;;5094272;28;20193;-62
2023/01/01 01:28:50;;;;;;;86.60;57.55;;;8.80;89.80;;;;;;5094647;28;20689;-63
2023/01/01 01:31:19;;;;;;;80.60;53.42;;;8.80;89.70;;;;;;5093917;28;20235;-63
2023/01/01 01:33:46;;;;;;;79.00;55.67;;;8.70;89.80;;;;;;5094139;28;20270;-62
2023/01/01 01:36:15;;;;;;;66.65;50.53;;;8.70;90.00;;;;;;5093658;28;20257;-63
2023/01/01 01:38:43;;;;;;;65.38;45.55;;;8.70;89.90;;;;;;5093666;28;20286;-63
2023/01/01 01:41:12;;;;;;;60.17;40.78;;;8.80;90.00;;;;;;5093913;28;20293;-63
2023/01/01 01:43:51;;;;;;;58.22;43.15;;;8.80;89.90;;;;;;5093881;28;20291;-63
2023/01/01 01:46:23;;;;;;;55.03;39.40;;;8.70;89.60;;;;;;5093808;28;20228;-63
2023/01/01 01:48:51;;;;;;;50.28;38.33;;;8.70;89.20;;;;;;5093834;28;20191;-63
2023/01/01 01:51:22;;;;;;;62.22;40.22;;;8.70;89.60;;;;;;5093697;28;20225;-63
2023/01/01 01:53:54;;;;;;;51.33;35.35;;;8.70;89.50;;;;;;5093263;28;20701;-63
2023/01/01 01:56:26;;;;;;;59.50;41.10;;;8.70;89.90;;;;;;5093693;28;20663;-64
2023/01/01 01:58:53;;;;;;;58.65;42.30;;;8.70;89.80;;;;;;5093368;28;20198;-63
2023/01/01 02:01:21;;;;;;;68.00;44.85;;;8.80;89.50;;;;;;5093537;28;20249;-63
2023/01/01 02:03:52;;;;;;;57.22;41.53;;;8.90;89.40;;;;;;5093549;28;20645;-64
2023/01/01 02:06:20;;;;;;;58.10;40.30;;;8.90;89.20;;;;;;5093108;28;20191;-63
2023/01/01 02:08:49;;;;;;;61.17;39.83;;;8.80;89.50;;;;;;5093390;28;20280;-63
2023/01/01 02:11:16;;;;;;;54.88;37.08;;;8.80;89.10;;;;;;5093103;28;20204;-63
2023/01/01 02:13:43;;;;;;;52.20;34.67;;;8.70;89.40;;;;;;5093135;28;20228;-63
2023/01/01 02:16:18;;;;;;;45.25;31.42;;;8.70;89.00;;;;;;5093009;28;20610;-63
2023/01/01 02:18:55;;;;;;;51.72;33.72;;;8.70;89.00;;;;;;5093089;28;20191;-64
2023/01/01 02:21:25;;;;;;;55.50;34.35;;;8.70;89.20;;;;;;5093240;28;20659;-63
2023/01/01 02:24:05;;;;;;;59.08;38.13;;;8.70;89.40;;;;;;5093361;28;20236;-64
2023/01/01 02:26:45;;;;;;;48.67;32.05;;;8.60;90.00;;;;;;5093124;28;20536;-63
2023/01/01 02:29:22;;;;;;;41.03;28.90;;;8.60;89.90;;;;;;5092532;28;20206;-64
2023/01/01 02:31:54;;;;;;;36.65;27.50;;;8.60;89.50;;;;;;5093078;28;20276;-63
2023/01/01 02:34:27;;;;;;;34.80;27.52;;;8.60;89.00;;;;;;5093064;28;20200;-64
2023/01/01 02:36:56;;;;;;;43.25;29.15;;;8.70;88.70;;;;;;5092822;28;20189;-64
2023/01/01 02:39:27;;;;;;;36.97;27.95;;;8.70;88.90;;;;;;5093011;28;20281;-62
2023/01/01 02:41:56;;;;;;;42.50;28.95;;;8.70;88.40;;;;;;5091929;28;20221;-62
2023/01/01 02:44:28;;;;;;;38.72;27.27;;;8.70;88.20;;;;;;5092845;28;20187;-62
2023/01/01 02:46:55;;;;;;;42.22;29.73;;;8.80;88.20;;;;;;5092590;28;20596;-63
2023/01/01 02:49:22;;;;;;;45.67;33.40;;;8.80;87.70;;;;;;5092889;28;20224;-62
2023/01/01 02:52:01;;;;;;;44.60;33.70;;;8.90;87.10;;;;;;5092765;28;20190;-62
2023/01/01 02:54:35;;;;;;;46.78;33.85;;;8.80;86.40;;;;;;5092598;28;20250;-62
2023/01/01 02:57:09;;;;;;;45.10;33.00;;;8.80;86.40;;;;;;5092477;28;20224;-62
2023/01/01 03:02:45;;;;;;;43.38;34.40;;;8.70;86.40;;;;;;5092553;28;20216;-62
2023/01/01 03:05:19;;;;;;;52.75;35.08;;;8.70;86.80;;;;;;5092655;28;20243;-62
2023/01/01 03:07:56;;;;;;;51.65;34.03;;;8.70;86.90;;;;;;5092755;28;20198;-62
2023/01/01 03:10:30;;;;;;;48.55;32.90;;;8.70;86.90;;;;;;5092539;28;20273;-62
2023/01/01 03:13:02;;;;;;;50.15;36.20;;;8.60;86.70;;;;;;5092618;28;20249;-62
2023/01/01 03:15:38;;;;;;;52.38;32.50;;;8.60;86.60;;;;;;5092596;28;20279;-62
2023/01/01 03:18:09;;;;;;;39.47;26.92;;;8.60;86.40;;;;;;5092184;28;20230;-62
2023/01/01 03:20:40;;;;;;;37.10;28.95;;;8.70;86.60;;;;;;5092219;28;20282;-63
2023/01/01 03:23:12;;;;;;;41.50;29.45;;;8.70;85.70;;;;;;5092365;28;20232;-63
2023/01/01 03:25:42;;;;;;;37.03;28.65;;;8.70;85.60;;;;;;5092033;28;20232;-64
2023/01/01 03:28:13;;;;;;;36.85;27.65;;;8.70;85.40;;;;;;5092434;28;20229;-62
2023/01/01 03:30:44;;;;;;;42.88;28.58;;;8.80;85.30;;;;;;5092053;28;20193;-62
2023/01/01 03:33:16;;;;;;;27.60;21.17;;;8.80;85.20;;;;;;5092170;28;20186;-63
2023/01/01 03:35:48;;;;;;;31.38;23.60;;;8.80;85.00;;;;;;5092008;28;20250;-63
2023/01/01 03:38:21;;;;;;;32.65;23.50;;;8.80;84.70;;;;;;5092423;28;20281;-62
2023/01/01 03:40:53;;;;;;;35.45;25.83;;;8.80;84.10;;;;;;5091910;28;20649;-63
2023/01/01 03:43:27;;;;;;;26.20;21.35;;;8.80;83.80;;;;;;5092388;28;20213;-62
2023/01/01 03:45:57;;;;;;;26.90;20.48;;;8.70;83.30;;;;;;5092243;28;20285;-63
2023/01/01 03:48:24;;;;;;;32.80;23.58;;;8.70;83.50;;;;;;5092402;28;20616;-63
2023/01/01 03:51:02;;;;;;;31.70;23.80;;;8.60;83.00;;;;;;5092118;28;20205;-63
2023/01/01 03:53:39;;;;;;;28.90;22.55;;;8.60;82.20;;;;;;5093800;28;20309;-63
2023/01/01 03:56:14;;;;;;;31.75;22.25;;;8.50;81.60;;;;;;5095990;28;20527;-63
2023/01/01 03:58:48;;;;;;;31.65;20.77;;;8.40;83.30;;;;;;5095920;28;20246;-62
2023/01/01 04:01:24;;;;;;;22.80;17.25;;;8.30;84.30;;;;;;5095975;28;20276;-63
2023/01/01 04:03:52;;;;;;;20.90;15.85;;;8.30;85.20;;;;;;5095980;28;20281;-64
2023/01/01 04:06:20;;;;;;;20.27;14.57;;;8.30;85.50;;;;;;5096037;28;20284;-63
2023/01/01 04:08:49;;;;;;;24.05;16.92;;;8.30;85.20;;;;;;5095604;28;20230;-62
2023/01/01 04:14:07;;;;;;;20.77;15.60;;;8.30;84.80;;;;;;5095931;28;20193;-62
2023/01/01 04:16:35;;;;;;;25.00;16.83;;;8.30;85.40;;;;;;5095866;28;20598;-63
2023/01/01 04:19:05;;;;;;;18.35;14.07;;;8.30;85.40;;;;;;5095487;28;20196;-62
2023/01/01 04:21:32;;;;;;;16.55;12.52;;;8.20;85.00;;;;;;5095675;28;20193;-63
2023/01/01 04:23:59;;;;;;;20.83;15.48;;;8.20;85.00;;;;;;5095435;28;20253;-63
2023/01/01 04:26:26;;;;;;;16.63;12.38;;;8.20;85.30;;;;;;5095662;28;20225;-63
2023/01/01 04:28:53;;;;;;;14.00;11.13;;;8.20;85.20;;;;;;5095426;28;20201;-62
2023/01/01 04:31:20;;;;;;;12.52;7.78;;;8.20;85.10;;;;;;5095657;28;20185;-62
2023/01/01 04:33:53;;;;;;;12.43;8.38;;;8.30;84.60;;;;;;5095279;28;20283;-64
2023/01/01 04:36:20;;;;;;;9.50;7.15;;;8.30;84.50;;;;;;5095124;28;20261;-63
2023/01/01 04:38:47;;;;;;;11.65;8.40;;;8.30;84.60;;;;;;5095272;28;20192;-63
2023/01/01 04:41:14;;;;;;;12.13;8.35;;;8.40;84.60;;;;;;5095398;28;20228;-63
2023/01/01 04:43:43;;;;;;;14.88;8.25;;;8.40;84.60;;;;;;5095274;28;20265;-63
2023/01/01 04:46:10;;;;;;;10.70;7.53;;;8.40;84.60;;;;;;5094661;28;20276;-62
2023/01/01 04:48:37;;;;;;;11.68;7.70;;;8.40;84.60;;;;;;5095293;28;20595;-63
2023/01/01 04:51:05;;;;;;;13.88;8.50;;;8.40;84.30;;;;;;5095061;28;20366;-64
2023/01/01 04:53:34;;;;;;;11.13;7.85;;;8.50;83.70;;;;;;5095041;28;20237;-62
2023/01/01 04:56:04;;;;;;;9.13;7.50;;;8.40;83.40;;;;;;5094819;28;20275;-64
2023/01/01 04:58:32;;;;;;;13.90;8.70;;;8.40;83.50;;;;;;5094832;28;20264;-63
2023/01/01 05:00:59;;;;;;;10.60;7.30;;;8.30;83.70;;;;;;5094798;28;20198;-64
2023/01/01 05:03:26;;;;;;;11.65;7.55;;;8.30;83.80;;;;;;5094926;28;20223;-63
2023/01/01 05:06:00;;;;;;;9.13;6.90;;;8.30;83.70;;;;;;5094407;28;20292;-64
2023/01/01 05:08:29;;;;;;;10.23;6.18;;;8.30;84.30;;;;;;5095003;28;20202;-63
2023/01/01 05:11:01;;;;;;;8.18;6.32;;;8.30;83.50;;;;;;5094826;28;20193;-64
2023/01/01 05:13:28;;;;;;;6.75;5.30;;;8.30;83.30;;;;;;5094674;28;20223;-64
2023/01/01 05:15:55;;;;;;;9.32;6.50;;;8.20;82.60;;;;;;5094329;28;20280;-63
2023/01/01 05:18:22;;;;;;;11.02;5.55;;;8.20;82.50;;;;;;5094650;28;20230;-63
2023/01/01 05:20:49;;;;;;;10.52;4.55;;;8.20;82.10;;;;;;5094480;28;20193;-63
2023/01/01 05:23:16;;;;;;;8.02;5.60;;;8.20;81.70;;;;;;5094574;28;20311;-63
2023/01/01 05:25:45;;;;;;;9.80;4.72;;;8.10;82.40;;;;;;5094057;28;20681;-63
2023/01/01 05:28:12;;;;;;;7.72;4.32;;;8.10;82.50;;;;;;5094018;28;20667;-63
2023/01/01 05:30:40;;;;;;;7.47;5.00;;;8.10;82.50;;;;;;5094276;28;20276;-64
2023/01/01 05:33:07;;;;;;;9.00;6.13;;;8.10;82.80;;;;;;5094549;28;20208;-63
2023/01/01 05:35:34;;;;;;;9.80;6.15;;;8.10;82.80;;;;;;5094111;28;20338;-64
2023/01/01 05:38:02;;;;;;;9.18;6.47;;;8.20;82.40;;;;;;5094183;28;20235;-64
2023/01/01 05:40:29;;;;;;;11.43;6.60;;;8.20;82.20;;;;;;5094178;28;20193;-63
2023/01/01 05:42:57;;;;;;;9.73;6.55;;;8.20;81.80;;;;;;5094181;28;20678;-64
2023/01/01 05:45:24;;;;;;;9.02;5.72;;;8.20;81.80;;;;;;5094103;28;20719;-63
2023/01/01 05:47:51;;;;;;;5.88;4.28;;;8.20;81.80;;;;;;5094426;28;20936;-64
2023/01/01 05:50:18;;;;;;;5.90;4.32;;;8.10;82.00;;;;;;5094120;28;20196;-63
2023/01/01 05:52:45;;;;;;;8.82;5.53;;;8.20;82.10;;;;;;5094131;28;20296;-63
2023/01/01 05:55:12;;;;;;;11.50;7.10;;;8.20;81.70;;;;;;5093821;28;20261;-63
2023/01/01 05:57:39;;;;;;;9.18;6.07;;;8.20;81.40;;;;;;5094034;28;20224;-63
2023/01/01 06:00:09;;;;;;;10.90;6.80;;;8.20;80.80;;;;;;5093806;28;20254;-63
2023/01/01 06:02:36;;;;;;;10.02;7.53;;;8.10;80.40;;;;;;5093253;28;20209;-64
2023/01/01 06:05:03;;;;;;;11.20;8.45;;;8.10;80.00;;;;;;5093797;28;20237;-64
2023/01/01 06:07:30;;;;;;;11.27;7.88;;;7.90;78.70;;;;;;5093791;28;20280;-63
2023/01/01 06:09:57;;;;;;;10.00;7.18;;;7.80;78.40;;;;;;5093759;28;20193;-65
2023/01/01 06:12:24;;;;;;;10.77;6.57;;;7.60;78.70;;;;;;5093696;28;20189;-63
2023/01/01 06:14:51;;;;;;;7.80;5.68;;;7.50;79.40;;;;;;5093873;28;20229;-63
2023/01/01 06:17:20;;;;;;;12.10;6.72;;;7.40;80.60;;;;;;5092834;28;20193;-63
2023/01/01 06:19:47;;;;;;;6.40;5.18;;;7.40;81.00;;;;;;5093641;28;20224;-63
2023/01/01 06:22:14;;;;;;;8.88;5.85;;;7.40;81.40;;;;;;5093598;28;20225;-63
2023/01/01 06:24:41;;;;;;;8.10;5.30;;;7.40;81.80;;;;;;5093443;28;20256;-64
2023/01/01 06:27:08;;;;;;;9.57;6.20;;;7.40;82.10;;;;;;5093524;28;20189;-63
2023/01/01 06:29:35;;;;;;;9.18;5.30;;;7.30;80.90;;;;;;5092897;28;20647;-63
2023/01/01 06:32:02;;;;;;;8.48;5.72;;;7.30;80.60;;;;;;5093557;28;20231;-63
2023/01/01 06:34:30;;;;;;;8.65;5.72;;;7.30;81.40;;;;;;5092846;28;20317;-64
2023/01/01 06:36:57;;;;;;;9.30;5.90;;;7.30;81.50;;;;;;5093137;28;20671;-64
2023/01/01 06:39:24;;;;;;;8.85;6.95;;;7.20;81.40;;;;;;5093456;28;20547;-63
2023/01/01 06:41:51;;;;;;;12.40;6.80;;;7.20;81.60;;;;;;5093361;28;20276;-64
2023/01/01 06:44:18;;;;;;;12.00;5.00;;;7.20;81.90;;;;;;5093082;28;20761;-65
2023/01/01 06:46:45;;;;;;;11.18;5.20;;;7.20;82.20;;;;;;5092654;28;20189;-63
2023/01/01 06:49:12;;;;;;;8.32;4.95;;;7.20;82.50;;;;;;5093089;28;20192;-63
2023/01/01 06:51:42;;;;;;;6.88;4.28;;;7.20;83.10;;;;;;5092932;28;20291;-63
2023/01/01 06:54:10;;;;;;;5.35;3.10;;;7.10;83.60;;;;;;5093165;28;20229;-63
2023/01/01 06:56:38;;;;;;;8.48;5.15;;;7.10;84.30;;;;;;5092644;28;20197;-63
2023/01/01 06:59:06;;;;;;;7.85;5.40;;;7.20;84.20;;;;;;5093060;28;20225;-63
2023/01/01 07:01:35;;;;;;;9.18;5.50;;;7.20;83.20;;;;;;5092923;28;20235;-63
2023/01/01 07:04:04;;;;;;;6.78;4.90;;;7.20;83.00;;;;;;5092837;28;20213;-63
2023/01/01 07:06:32;;;;;;;8.65;5.13;;;7.20;82.80;;;;;;5093040;28;20300;-63
2023/01/01 07:09:01;;;;;;;7.57;4.85;;;7.20;82.60;;;;;;5092993;28;20224;-63
2023/01/01 07:11:29;;;;;;;9.75;6.03;;;7.10;81.70;;;;;;5092981;28;20620;-63
2023/01/01 07:13:56;;;;;;;9.65;5.15;;;7.00;80.20;;;;;;5092885;28;20280;-64
2023/01/01 07:16:24;;;;;;;7.22;5.20;;;6.80;80.10;;;;;;5092565;28;20636;-63
2023/01/01 07:18:51;;;;;;;8.48;5.95;;;6.80;81.20;;;;;;5092651;28;20694;-64
2023/01/01 07:21:27;;;;;;;8.27;5.47;;;6.70;81.80;;;;;;5092416;28;20232;-64
2023/01/01 07:23:55;;;;;;;9.25;6.10;;;6.70;82.50;;;;;;5093005;28;20216;-65
2023/01/01 07:26:24;;;;;;;7.93;4.82;;;6.70;82.10;;;;;;5092395;28;20201;-64
2023/01/01 07:28:52;;;;;;;7.00;4.95;;;6.70;83.20;;;;;;5095242;28;20188;-63
2023/01/01 07:31:19;;;;;;;8.43;6.10;;;6.80;84.00;;;;;;5096473;28;20229;-63
2023/01/01 07:33:46;;;;;;;9.27;5.05;;;6.90;84.00;;;;;;5096295;28;20225;-63
2023/01/01 07:36:13;;;;;;;6.70;5.07;;;7.00;83.20;;;;;;5096516;28;20277;-63
2023/01/01 07:38:40;;;;;;;8.65;5.82;;;7.00;83.10;;;;;;5096757;28;20192;-63
2023/01/01 07:41:07;;;;;;;10.32;6.82;;;7.10;83.90;;;;;;5096327;28;20189;-63
2023/01/01 07:43:35;;;;;;;11.57;8.07;;;7.20;84.00;;;;;;5096527;28;20655;-64
2023/01/01 07:46:03;;;;;;;17.17;10.05;;;7.30;83.20;;;;;;5096342;28;20235;-64
2023/01/01 07:48:30;;;;;;;14.43;9.43;;;7.40;84.20;;;;;;5096803;28;20250;-65
2023/01/01 07:50:57;;;;;;;10.80;7.38;;;7.60;83.40;;;;;;5096866;28;20217;-64
2023/01/01 07:53:32;;;;;;;8.73;6.90;;;7.90;83.90;;;;;;5096998;28;20262;-63
2023/01/01 07:56:00;;;;;;;11.15;7.57;;;8.20;80.80;;;;;;5096508;28;20199;-64
2023/01/01 07:58:27;;;;;;;7.78;5.07;;;8.40;79.90;;;;;;5096626;28;20193;-64
2023/01/01 08:01:00;;;;;;;10.10;5.28;;;8.50;79.80;;;;;;5096954;28;20195;-64
2023/01/01 08:03:27;;;;;;;7.80;5.03;;;8.50;79.10;;;;;;5096673;28;20242;-63
2023/01/01 08:05:54;;;;;;;7.30;5.60;;;8.60;79.00;;;;;;5096643;28;20623;-67
2023/01/01 08:08:21;;;;;;;5.13;3.30;;;8.60;78.80;;;;;;5096674;28;20189;-67
2023/01/01 08:10:49;;;;;;;6.43;4.38;;;8.60;78.50;;;;;;5096509;28;20255;-63
2023/01/01 08:13:16;;;;;;;6.20;3.63;;;8.60;78.70;;;;;;5095790;28;20316;-63
2023/01/01 08:15:43;;;;;;;6.85;4.60;;;8.70;78.90;;;;;;5096807;28;20189;-63
2023/01/01 08:18:12;;;;;;;6.72;5.35;;;8.70;78.40;;;;;;5097049;28;20189;-63
2023/01/01 08:20:39;;;;;;;9.00;6.75;;;8.70;78.60;;;;;;5096520;28;20238;-63
2023/01/01 08:23:06;;;;;;;10.18;7.88;;;8.80;78.80;;;;;;5096060;28;20647;-68
2023/01/01 08:25:33;;;;;;;13.20;8.80;;;8.80;78.60;;;;;;5097125;28;20197;-64
2023/01/01 08:28:01;;;;;;;8.10;5.22;;;8.90;78.20;;;;;;5097350;28;20258;-64
2023/01/01 08:30:29;;;;;;;8.65;5.75;;;8.90;78.60;;;;;;5096532;28;20281;-64
2023/01/01 08:32:56;;;;;;;8.30;5.63;;;9.10;78.70;;;;;;5095997;28;20201;-65
2023/01/01 08:35:24;;;;;;;6.95;5.20;;;9.20;78.90;;;;;;5095514;28;20258;-64
2023/01/01 08:37:51;;;;;;;11.70;8.45;;;9.30;76.70;;;;;;5096484;28;20196;-63
2023/01/01 08:40:19;;;;;;;19.25;14.13;;;9.50;77.50;;;;;;5095109;28;20617;-64
2023/01/01 08:42:46;;;;;;;13.32;9.38;;;9.70;78.20;;;;;;5096242;28;20200;-66
2023/01/01 08:45:14;;;;;;;6.63;4.65;;;9.90;76.60;;;;;;5096469;28;20194;-63
2023/01/01 08:47:41;;;;;;;18.73;13.68;;;10.10;74.80;;;;;;5097173;28;20215;-65
2023/01/01 08:50:09;;;;;;;8.43;6.05;;;10.40;76.40;;;;;;5096610;28;20239;-65
2023/01/01 08:52:38;;;;;;;19.02;15.32;;;10.90;75.00;;;;;;5096417;28;20195;-67
2023/01/01 08:55:06;;;;;;;7.70;5.03;;;11.50;75.20;;;;;;5095156;28;20256;-65
2023/01/01 08:57:33;;;;;;;14.73;12.52;;;12.30;72.50;;;;;;5095316;28;20577;-64
2023/01/01 09:00:00;;;;;;;8.40;6.15;;;12.90;71.70;;;;;;5095214;28;20635;-64
2023/01/01 09:02:27;;;;;;;8.43;5.27;;;13.60;70.50;;;;;;5094988;28;20192;-64
2023/01/01 09:04:54;;;;;;;7.97;4.83;;;14.20;68.20;;;;;;5094407;28;20483;-64
2023/01/01 09:07:21;;;;;;;6.80;4.70;;;14.70;66.20;;;;;;5095209;28;20439;-64
2023/01/01 09:09:49;;;;;;;4.50;4.00;;;15.10;64.40;;;;;;5094950;28;20520;-62
2023/01/01 09:12:17;;;;;;;5.13;4.17;;;15.50;62.10;;;;;;5094921;28;20518;-63
2023/01/01 09:14:47;;;;;;;8.57;4.50;;;15.90;60.70;;;;;;5094720;28;20567;-63
2023/01/01 09:17:14;;;;;;;4.40;3.00;;;16.30;59.90;;;;;;5094919;28;20431;-63
2023/01/01 09:19:41;;;;;;;5.90;3.80;;;16.70;59.60;;;;;;5094608;28;20439;-62
2023/01/01 09:22:09;;;;;;;4.40;3.23;;;17.10;58.90;;;;;;5094329;28;20443;-62
2023/01/01 09:24:36;;;;;;;4.80;3.50;;;17.50;56.70;;;;;;5094541;28;20576;-62
2023/01/01 09:27:05;;;;;;;4.77;3.83;;;17.70;55.20;;;;;;5094147;28;20479;-62
2023/01/01 09:29:32;;;;;;;7.07;4.57;;;17.90;52.60;;;;;;5094449;28;20493;-63
2023/01/01 09:31:59;;;;;;;7.23;4.90;;;18.20;54.50;;;;;;5094295;28;20446;-62
2023/01/01 09:34:26;;;;;;;8.30;5.80;;;18.50;51.60;;;;;;5093800;28;20871;-64
2023/01/01 09:36:53;;;;;;;7.80;5.73;;;18.70;52.40;;;;;;5094178;28;20601;-62
2023/01/01 09:39:20;;;;;;;7.33;4.47;;;18.90;50.10;;;;;;5093776;28;20505;-62
2023/01/01 09:42:04;;;;;;;7.00;3.33;;;19.00;49.70;;;;;;5094218;28;20443;-63
2023/01/01 09:45:02;;;;;;;6.23;3.47;;;19.20;49.80;;;;;;5093940;28;20909;-63
2023/01/01 09:47:34;;;;;;;6.30;3.57;;;19.60;49.00;;;;;;5094267;28;20460;-62
2023/01/01 09:50:05;;;;;;;7.10;3.90;;;19.90;46.80;;;;;;5094038;28;20431;-63
2023/01/01 09:52:39;;;;;;;5.97;2.73;;;20.10;48.90;;;;;;5093720;28;20466;-62
2023/01/01 09:55:15;;;;;;;4.60;2.13;;;20.20;45.60;;;;;;5094177;28;20909;-62
2023/01/01 09:57:42;;;;;;;3.10;1.60;;;20.50;47.00;;;;;;5093965;28;20439;-63
2023/01/01 10:00:16;;;;;;;3.47;2.23;;;20.90;43.80;;;;;;5093545;28;20848;-63
2023/01/01 10:03:03;;;;;;;5.60;2.10;;;21.40;43.90;;;;;;5094030;28;20431;-62
2023/01/01 10:05:42;;;;;;;2.73;1.60;;;21.70;43.10;;;;;;5093823;28;20856;-62
2023/01/01 10:08:17;;;;;;;6.13;2.23;;;22.10;41.90;;;;;;5093324;28;21044;-62
2023/01/01 10:10:52;;;;;;;3.03;2.00;;;22.50;41.60;;;;;;5094146;28;20430;-63
2023/01/01 10:13:25;;;;;;;3.17;1.80;;;22.70;41.00;;;;;;5093450;28;20527;-62
2023/01/01 10:15:58;;;;;;;2.97;1.60;;;22.90;40.50;;;;;;5093781;28;20540;-63
2023/01/01 10:18:29;;;;;;;3.43;1.70;;;23.00;38.60;;;;;;5093789;28;20518;-62
2023/01/01 10:21:03;;;;;;;3.37;1.60;;;23.10;37.60;;;;;;5093623;28;20445;-64
2023/01/01 10:23:37;;;;;;;2.57;1.43;;;23.30;39.30;;;;;;5092988;28;20930;-63
2023/01/01 10:26:10;;;;;;;3.20;1.93;;;23.60;37.90;;;;;;5093464;28;20438;-63
2023/01/01 10:28:44;;;;;;;2.80;1.47;;;23.90;38.90;;;;;;5093251;28;20443;-67
2023/01/01 10:31:17;;;;;;;3.80;1.50;;;24.30;35.50;;;;;;5092894;28;20415;-63
2023/01/01 10:33:46;;;;;;;3.43;2.10;;;24.50;36.10;;;;;;5093287;28;20521;-64
2023/01/01 10:36:16;;;;;;;2.50;1.63;;;24.80;35.40;;;;;;5093108;28;20494;-63
2023/01/01 10:38:44;;;;;;;3.50;1.90;;;24.60;35.20;;;;;;5093166;28;20860;-63
2023/01/01 10:41:12;;;;;;;3.70;1.97;;;24.70;34.50;;;;;;5093027;28;20856;-64
2023/01/01 10:43:39;;;;;;;3.67;1.50;;;24.70;34.90;;;;;;5093191;28;20457;-63
2023/01/01 10:46:06;;;;;;;3.07;1.60;;;24.90;34.80;;;;;;5093072;28;20488;-63
2023/01/01 10:48:35;;;;;;;2.30;1.20;;;24.90;34.30;;;;;;5093157;28;20526;-63
2023/01/01 10:51:04;;;;;;;3.23;1.90;;;24.80;34.10;;;;;;5093085;28;20438;-63
2023/01/01 10:53:35;;;;;;;2.87;1.53;;;24.80;34.40;;;;;;5093129;28;20997;-63
2023/01/01 10:56:06;;;;;;;3.50;1.67;;;24.90;34.90;;;;;;5093182;28;20577;-63
2023/01/01 10:58:44;;;;;;;3.33;1.27;;;25.10;33.60;;;;;;5092887;28;20439;-63
2023/01/01 11:01:13;;;;;;;2.70;1.30;;;25.20;32.50;;;;;;5093163;28;20438;-63
2023/01/01 11:03:55;;;;;;;4.43;1.43;;;25.40;33.30;;;;;;5092207;28;20521;-66
2023/01/01 11:06:25;;;;;;;2.80;1.50;;;25.40;32.30;;;;;;5093104;28;20436;-63
2023/01/01 11:08:55;;;;;;;2.50;1.50;;;25.40;32.40;;;;;;5092982;28;20439;-63
2023/01/01 11:11:27;;;;;;;2.70;1.70;;;25.50;31.60;;;;;;5093033;28;20492;-63
2023/01/01 11:13:57;;;;;;;2.70;1.77;;;25.60;32.00;;;;;;5093266;28;20435;-63
2023/01/01 11:16:25;;;;;;;2.40;1.40;;;25.70;31.60;;;;;;5093673;28;20443;-63
2023/01/01 11:19:02;;;;;;;2.40;1.30;;;26.00;32.30;;;;;;5093008;28;20469;-63
2023/01/01 11:21:29;;;;;;;4.63;1.43;;;26.20;31.30;;;;;;5093484;28;20435;-63
2023/01/01 11:24:17;;;;;;;2.37;1.13;;;26.10;30.50;;;;;;5093329;28;20446;-65
2023/01/01 11:26:44;;;;;;;3.23;1.67;;;26.30;31.50;;;;;;5092933;28;20475;-63
2023/01/01 11:29:23;;;;;;;2.70;1.30;;;26.70;30.80;;;;;;5092789;28;20435;-63
2023/01/01 11:31:51;;;;;;;2.40;1.20;;;26.80;29.80;;;;;;5092456;28;20495;-63
2023/01/01 11:34:29;;;;;;;3.63;1.50;;;26.60;30.60;;;;;;5092647;28;20489;-63
2023/01/01 11:37:15;;;;;;;2.67;1.33;;;26.70;29.80;;;;;;5092593;28;20988;-64
2023/01/01 11:39:44;;;;;;;2.80;1.30;;;26.80;30.10;;;;;;5092420;28;20564;-64
2023/01/01 11:42:17;;;;;;;3.83;1.90;;;26.90;30.50;;;;;;5092494;28;20526;-63
2023/01/01 11:44:47;;;;;;;2.77;1.60;;;27.00;29.40;;;;;;5092473;28;20510;-63
2023/01/01 11:47:23;;;;;;;3.93;1.70;;;27.20;30.20;;;;;;5092458;28;20438;-63
2023/01/01 11:50:01;;;;;;;3.47;1.57;;;27.40;28.90;;;;;;5092212;28;20438;-63
2023/01/01 11:52:39;;;;;;;3.47;1.80;;;27.50;29.70;;;;;;5092656;28;20923;-65
2023/01/01 11:55:20;;;;;;;3.90;1.57;;;27.60;29.20;;;;;;5092239;28;20438;-63
2023/01/01 11:57:56;;;;;;;2.90;1.67;;;27.40;29.10;;;;;;5092501;28;20483;-63
2023/01/01 12:00:23;;;;;;;3.07;1.40;;;27.30;29.20;;;;;;5092526;28;20434;-63
2023/01/01 12:02:57;;;;;;;2.43;1.43;;;27.30;29.10;;;;;;5092430;28;20515;-64
2023/01/01 12:05:32;;;;;;;2.77;1.30;;;27.10;28.40;;;;;;5092064;28;20482;-63
2023/01/01 12:08:03;;;;;;;2.40;1.10;;;26.70;28.90;;;;;;5092404;28;20448;-64
2023/01/01 12:10:40;;;;;;;3.50;1.40;;;26.40;29.00;;;;;;5092404;28;20447;-63
2023/01/01 12:13:15;;;;;;;3.20;1.20;;;26.10;28.30;;;;;;5092334;28;20435;-63
2023/01/01 12:15:49;;;;;;;2.43;1.40;;;25.30;28.80;;;;;;5094404;28;20474;-63
2023/01/01 12:18:22;;;;;;;4.03;1.77;;;24.80;29.50;;;;;;5095920;28;20478;-64
2023/01/01 12:20:57;;;;;;;2.27;1.40;;;24.30;30.50;;;;;;5095619;28;20482;-63
2023/01/01 12:23:24;;;;;;;2.50;1.47;;;24.10;30.60;;;;;;5095915;28;20470;-63
2023/01/01 12:26:01;;;;;;;2.80;1.40;;;24.00;31.30;;;;;;5096066;28;20479;-62
2023/01/01 12:28:36;;;;;;;3.03;1.23;;;23.90;30.00;;;;;;5095182;28;20427;-63
2023/01/01 12:31:12;;;;;;;2.00;0.90;;;23.60;30.00;;;;;;5095845;28;20534;-63
2023/01/01 12:33:53;;;;;;;2.27;1.17;;;23.70;30.50;;;;;;5095362;28;20770;-63
2023/01/01 12:36:33;;;;;;;2.30;1.30;;;23.90;30.00;;;;;;5095432;28;20478;-63
2023/01/01 12:39:51;;;;;;;2.37;1.23;;;24.10;30.10;;;;;;5095502;28;20521;-64
2023/01/01 12:42:26;;;;;;;2.70;1.67;;;24.10;29.80;;;;;;5095371;28;21034;-63
2023/01/01 12:45:17;;;;;;;2.30;1.20;;;24.00;29.40;;;;;;5095087;28;20482;-64
2023/01/01 12:47:53;;;;;;;3.10;1.10;;;23.80;29.50;;;;;;5095471;28;20470;-63
2023/01/01 12:50:29;;;;;;;2.13;1.00;;;23.70;30.30;;;;;;5094998;28;20493;-63
2023/01/01 12:53:10;;;;;;;2.87;1.20;;;23.60;30.10;;;;;;5095251;28;20550;-65
2023/01/01 12:56:13;;;;;;;2.30;0.97;;;23.60;29.80;;;;;;5095255;28;20439;-63
2023/01/01 12:58:44;;;;;;;2.80;1.30;;;23.60;29.90;;;;;;5094855;28;20905;-62
2023/01/01 13:01:15;;;;;;;7.50;1.40;;;23.30;30.30;;;;;;5095193;28;20936;-63
2023/01/01 13:03:49;;;;;;;2.10;1.07;;;23.10;30.10;;;;;;5094855;28;20531;-63
2023/01/01 13:06:19;;;;;;;2.00;0.93;;;23.00;30.40;;;;;;5094625;28;20555;-63